Time;durP1;ratioP1;P1;durP2;ratioP2;P2;SDS_P1;SDS_P2;PMS_P1;PMS_P2;Temp;Humidity;BMP_temperature;BMP_pressure;BME280_temperature;BME280_humidity;BME280_pressure;Samples;Min_cycle;Max_cycle;Signal;HPM_P1;HPM_P2
2021/01/27 00:01:47;;;;;;;15.18;12.25;;;1.40;91.00;;;;;;5034283;28;20084;-73
2021/01/27 00:04:13;;;;;;;16.77;11.90;;;1.40;91.20;;;;;;5035264;28;20055;-72
2021/01/27 00:06:39;;;;;;;14.85;11.23;;;1.30;91.20;;;;;;5033183;28;20072;-72
2021/01/27 00:09:05;;;;;;;15.68;12.45;;;1.40;91.20;;;;;;5032458;28;20033;-73
2021/01/27 00:11:31;;;;;;;16.20;12.13;;;1.30;91.30;;;;;;5037535;28;20472;-72
2021/01/27 00:13:57;;;;;;;14.88;11.60;;;1.30;91.40;;;;;;5037672;28;20045;-73
2021/01/27 00:16:22;;;;;;;15.40;11.25;;;1.40;91.50;;;;;;5034093;28;20046;-73
2021/01/27 00:18:48;;;;;;;14.05;11.50;;;1.40;91.50;;;;;;5040204;28;20041;-75
2021/01/27 00:21:14;;;;;;;14.55;10.85;;;1.40;91.50;;;;;;5051021;28;20106;-74
2021/01/27 00:23:39;;;;;;;17.33;11.57;;;1.40;91.40;;;;;;5036488;28;20037;-75
2021/01/27 00:26:05;;;;;;;15.57;10.95;;;1.40;91.40;;;;;;5052238;28;20048;-74
2021/01/27 00:28:30;;;;;;;14.52;11.18;;;1.40;91.40;;;;;;5035266;28;20033;-73
2021/01/27 00:30:56;;;;;;;14.40;10.73;;;1.30;91.40;;;;;;5038778;28;20397;-73
2021/01/27 00:33:22;;;;;;;14.82;11.32;;;1.40;91.60;;;;;;5039094;28;20459;-73
2021/01/27 00:35:49;;;;;;;15.98;11.38;;;1.30;91.70;;;;;;5051332;28;20060;-73
2021/01/27 00:38:24;;;;;;;15.48;11.32;;;1.30;91.60;;;;;;5040321;28;20037;-73
2021/01/27 00:40:52;;;;;;;15.52;11.73;;;1.40;91.70;;;;;;5037390;28;20087;-72
2021/01/27 00:43:18;;;;;;;13.30;10.73;;;1.40;91.60;;;;;;5033440;28;20099;-74
2021/01/27 00:45:43;;;;;;;15.02;11.32;;;1.30;91.60;;;;;;5053173;28;20484;-73
2021/01/27 00:48:10;;;;;;;13.20;10.40;;;1.40;91.70;;;;;;5035524;28;20653;-73
2021/01/27 00:50:36;;;;;;;15.30;11.35;;;1.40;91.70;;;;;;5037503;28;20040;-73
2021/01/27 00:53:02;;;;;;;13.57;10.68;;;1.30;91.80;;;;;;5034250;28;20116;-73
2021/01/27 00:55:29;;;;;;;15.18;11.43;;;1.40;91.70;;;;;;5052918;28;20052;-72
2021/01/27 00:57:57;;;;;;;14.75;10.68;;;1.40;91.70;;;;;;5042701;28;20094;-72
2021/01/27 01:00:30;;;;;;;14.07;10.35;;;1.40;91.70;;;;;;5049290;28;20081;-77
2021/01/27 01:02:56;;;;;;;14.57;10.32;;;1.40;91.70;;;;;;5039544;28;20116;-73
2021/01/27 01:05:29;;;;;;;14.20;9.95;;;1.40;91.80;;;;;;5036497;28;20045;-73
2021/01/27 01:07:55;;;;;;;12.85;9.15;;;1.40;91.70;;;;;;5045045;28;20037;-77
2021/01/27 01:10:30;;;;;;;12.80;9.80;;;1.40;91.70;;;;;;5037460;28;20668;-73
2021/01/27 01:12:56;;;;;;;14.82;9.52;;;1.40;91.70;;;;;;5034294;28;20124;-72
2021/01/27 01:15:25;;;;;;;13.70;9.48;;;1.40;91.70;;;;;;5038233;28;20081;-73
2021/01/27 01:17:50;;;;;;;12.40;9.05;;;1.30;91.80;;;;;;5039413;28;20059;-72
2021/01/27 01:20:17;;;;;;;13.82;9.35;;;1.30;91.80;;;;;;5035774;28;20124;-74
2021/01/27 01:22:44;;;;;;;15.65;10.02;;;1.40;91.90;;;;;;5036274;28;20067;-73
2021/01/27 01:25:10;;;;;;;13.82;9.48;;;1.30;91.90;;;;;;5033986;28;20041;-74
2021/01/27 01:27:36;;;;;;;12.73;8.75;;;1.30;92.00;;;;;;5035706;28;20117;-74
2021/01/27 01:30:21;;;;;;;11.63;8.18;;;1.40;92.00;;;;;;5044870;28;20100;-74
2021/01/27 01:32:47;;;;;;;12.23;8.52;;;1.50;92.00;;;;;;5046642;28;20041;-73
2021/01/27 01:35:14;;;;;;;11.50;8.60;;;1.40;91.90;;;;;;5050972;28;20059;-76
2021/01/27 01:37:42;;;;;;;11.23;8.05;;;1.40;91.90;;;;;;5044664;28;20119;-71
2021/01/27 01:40:10;;;;;;;10.65;7.43;;;1.50;91.90;;;;;;5044033;28;20472;-73
2021/01/27 01:42:36;;;;;;;13.38;9.13;;;1.50;91.80;;;;;;5033466;28;20041;-74
2021/01/27 01:45:23;;;;;;;12.48;8.15;;;1.50;91.90;;;;;;5038398;28;20079;-72
2021/01/27 01:47:53;;;;;;;11.80;8.55;;;1.50;92.00;;;;;;5039252;28;20048;-73
2021/01/27 01:50:19;;;;;;;13.98;8.25;;;1.50;92.00;;;;;;5036839;28;20040;-73
2021/01/27 01:52:45;;;;;;;13.88;7.70;;;1.50;91.90;;;;;;5035160;28;20384;-73
2021/01/27 01:55:12;;;;;;;11.93;7.72;;;1.50;91.90;;;;;;5036337;28;20037;-72
2021/01/27 01:57:38;;;;;;;12.02;7.63;;;1.50;91.90;;;;;;5035266;28;20079;-75
2021/01/27 02:00:07;;;;;;;13.50;7.95;;;1.50;91.90;;;;;;5041947;28;20041;-76
2021/01/27 02:02:37;;;;;;;14.02;7.80;;;1.50;92.00;;;;;;5035171;28;20040;-73
2021/01/27 02:05:11;;;;;;;13.65;8.02;;;1.60;92.00;;;;;;5034801;28;20033;-72
2021/01/27 02:07:37;;;;;;;12.85;7.53;;;1.60;92.00;;;;;;5038770;28;20033;-72
2021/01/27 02:10:05;;;;;;;12.23;7.68;;;1.60;92.00;;;;;;5038172;28;20037;-72
2021/01/27 02:12:49;;;;;;;12.15;7.18;;;1.60;92.10;;;;;;5033751;28;20033;-73
2021/01/27 02:15:41;;;;;;;13.35;8.10;;;1.60;92.00;;;;;;5036160;28;20040;-72
2021/01/27 02:18:32;;;;;;;11.88;7.80;;;1.60;92.10;;;;;;5049975;28;20547;-74
2021/01/27 02:21:26;;;;;;;11.85;6.95;;;1.60;92.00;;;;;;5034287;28;20079;-72
2021/01/27 02:23:58;;;;;;;12.20;7.50;;;1.60;92.00;;;;;;5034457;28;20033;-74
2021/01/27 02:26:52;;;;;;;10.45;7.13;;;1.60;92.10;;;;;;5033922;28;20430;-77
2021/01/27 02:29:48;;;;;;;13.20;7.63;;;1.60;92.10;;;;;;5032463;28;20044;-72
2021/01/27 02:32:32;;;;;;;13.32;7.13;;;1.60;92.10;;;;;;5035580;28;20476;-75
2021/01/27 02:35:14;;;;;;;12.70;7.68;;;1.60;92.10;;;;;;5036920;28;20048;-76
2021/01/27 02:37:58;;;;;;;13.60;7.88;;;1.60;92.10;;;;;;5033108;28;20053;-74
2021/01/27 02:40:34;;;;;;;15.65;8.40;;;1.70;92.20;;;;;;5045573;28;20488;-72
2021/01/27 02:43:10;;;;;;;13.48;7.93;;;1.60;92.30;;;;;;5036856;28;20050;-72
2021/01/27 02:45:41;;;;;;;12.18;7.82;;;1.60;92.40;;;;;;5035409;28;20706;-74
2021/01/27 02:48:15;;;;;;;12.00;7.95;;;1.60;92.50;;;;;;5046250;28;20069;-74
2021/01/27 02:50:47;;;;;;;12.52;8.18;;;1.60;92.40;;;;;;5035787;28;20060;-76
2021/01/27 02:53:19;;;;;;;11.95;7.68;;;1.60;92.50;;;;;;5036792;28;20053;-75
2021/01/27 02:56:24;;;;;;;12.77;8.48;;;1.60;92.60;;;;;;5037487;28;20053;-73
2021/01/27 02:59:15;;;;;;;11.90;8.35;;;1.70;92.60;;;;;;5034758;28;20045;-72
2021/01/27 03:01:47;;;;;;;10.60;7.63;;;1.60;92.60;;;;;;5037386;28;20032;-73
2021/01/27 03:04:22;;;;;;;10.55;7.70;;;1.70;92.60;;;;;;5038250;28;20436;-73
2021/01/27 03:06:50;;;;;;;12.77;8.02;;;1.70;92.60;;;;;;5033266;28;20055;-72
2021/01/27 03:09:30;;;;;;;14.48;7.85;;;1.70;92.70;;;;;;5033809;28;20143;-72
2021/01/27 03:11:56;;;;;;;11.30;7.65;;;1.70;92.70;;;;;;5035513;28;20061;-74
2021/01/27 03:14:21;;;;;;;12.70;7.95;;;1.70;92.70;;;;;;5033674;28;20149;-72
2021/01/27 03:17:01;;;;;;;12.45;7.82;;;1.70;92.70;;;;;;5036513;28;20044;-72
2021/01/27 03:19:39;;;;;;;11.57;8.25;;;1.70;92.70;;;;;;5035010;28;20055;-73
2021/01/27 03:22:14;;;;;;;13.73;9.48;;;1.70;92.80;;;;;;5032571;28;20041;-75
2021/01/27 03:24:49;;;;;;;14.60;8.27;;;1.70;92.80;;;;;;5032052;28;20044;-73
2021/01/27 03:27:22;;;;;;;;;;;1.60;92.80;;;;;;5032066;28;20055;-72
2021/01/27 03:29:51;;;;;;;12.35;7.70;;;1.70;92.90;;;;;;5035442;28;19924;-72
2021/01/27 03:32:59;;;;;;;11.25;8.35;;;1.70;92.90;;;;;;5032750;28;20021;-72
2021/01/27 03:35:48;;;;;;;11.15;8.27;;;1.70;92.80;;;;;;5035454;28;20045;-72
2021/01/27 03:38:17;;;;;;;11.60;7.60;;;1.70;92.80;;;;;;5033786;28;20045;-72
2021/01/27 03:40:45;;;;;;;13.05;8.75;;;1.70;92.80;;;;;;5032730;28;20135;-72
2021/01/27 03:43:27;;;;;;;14.40;8.93;;;1.70;92.80;;;;;;5033678;28;20073;-72
2021/01/27 03:46:15;;;;;;;15.65;8.70;;;1.80;92.80;;;;;;5033538;28;20045;-72
2021/01/27 03:48:48;;;;;;;13.27;8.43;;;1.70;92.70;;;;;;5047530;28;20128;-76
2021/01/27 03:51:16;;;;;;;12.40;8.60;;;1.80;92.80;;;;;;5034405;28;20041;-76
2021/01/27 03:53:41;;;;;;;14.77;8.70;;;1.80;92.70;;;;;;5032749;28;20120;-76
2021/01/27 03:56:24;;;;;;;13.93;9.77;;;1.80;92.70;;;;;;5030608;28;20404;-73
2021/01/27 03:58:50;;;;;;;15.07;9.00;;;1.80;92.70;;;;;;5034855;28;20046;-72
2021/01/27 04:01:20;;;;;;;14.80;10.00;;;1.80;92.70;;;;;;5006520;28;744089;-73
2021/01/27 04:03:47;;;;;;;12.88;9.73;;;1.80;92.70;;;;;;5034768;28;20047;-72
2021/01/27 04:06:13;;;;;;;12.93;9.50;;;1.80;92.70;;;;;;5032049;28;20714;-73
2021/01/27 04:08:39;;;;;;;13.73;9.60;;;1.80;92.80;;;;;;5033465;28;20033;-72
2021/01/27 04:11:06;;;;;;;16.52;10.27;;;1.80;92.70;;;;;;5034815;28;20430;-75
2021/01/27 04:13:32;;;;;;;12.40;9.15;;;1.80;92.60;;;;;;5035042;28;20176;-73
2021/01/27 04:15:58;;;;;;;12.90;9.85;;;1.80;92.60;;;;;;5036462;28;20443;-72
2021/01/27 04:18:25;;;;;;;17.83;9.88;;;1.90;92.70;;;;;;5034233;28;20037;-73
2021/01/27 04:20:50;;;;;;;12.93;9.50;;;1.80;92.60;;;;;;5030771;28;20420;-74
2021/01/27 04:23:16;;;;;;;13.52;10.52;;;1.90;92.60;;;;;;5033231;28;20044;-73
2021/01/27 04:25:42;;;;;;;12.63;10.40;;;1.90;92.60;;;;;;5033848;28;20156;-75
2021/01/27 04:28:08;;;;;;;13.60;10.60;;;1.90;92.60;;;;;;5032118;28;20638;-73
2021/01/27 04:30:35;;;;;;;13.77;10.25;;;1.90;92.60;;;;;;5034488;28;20048;-71
2021/01/27 04:33:04;;;;;;;13.77;10.82;;;1.90;92.60;;;;;;5031175;28;20413;-72
2021/01/27 04:35:31;;;;;;;13.80;10.63;;;1.90;92.60;;;;;;5035212;28;20272;-73
2021/01/27 04:37:57;;;;;;;14.63;10.57;;;1.90;92.60;;;;;;5035028;28;20045;-74
2021/01/27 04:40:39;;;;;;;14.20;10.75;;;1.90;92.70;;;;;;5032528;28;20046;-72
2021/01/27 04:43:31;;;;;;;15.55;10.85;;;1.90;92.70;;;;;;5033170;28;20080;-73
2021/01/27 04:46:33;;;;;;;14.38;11.10;;;1.90;92.80;;;;;;5034742;28;20055;-73
2021/01/27 04:49:08;;;;;;;14.98;10.70;;;2.00;92.80;;;;;;5031094;28;20045;-72
2021/01/27 04:51:50;;;;;;;14.40;11.05;;;2.00;92.80;;;;;;5036982;28;20045;-73
2021/01/27 04:54:32;;;;;;;16.75;12.30;;;2.00;92.80;;;;;;5034233;28;20040;-74
2021/01/27 04:57:16;;;;;;;17.33;12.82;;;2.00;92.80;;;;;;5037785;28;20051;-72
2021/01/27 05:00:00;;;;;;;16.58;12.18;;;2.10;92.80;;;;;;5036298;28;21313;-76
2021/01/27 05:02:38;;;;;;;17.08;12.88;;;2.10;92.90;;;;;;5036618;28;20034;-73
2021/01/27 05:05:14;;;;;;;18.65;13.55;;;2.10;92.80;;;;;;5036175;28;20036;-76
2021/01/27 05:07:43;;;;;;;16.35;12.65;;;2.10;92.80;;;;;;5037964;28;20117;-72
2021/01/27 05:10:13;;;;;;;20.13;13.82;;;2.10;92.80;;;;;;5041847;28;20033;-73
2021/01/27 05:13:14;;;;;;;17.08;13.73;;;2.10;92.80;;;;;;5042367;28;20043;-72
2021/01/27 05:15:40;;;;;;;21.02;15.00;;;2.10;92.90;;;;;;5037834;28;20045;-73
2021/01/27 05:18:06;;;;;;;23.50;14.60;;;2.10;92.90;;;;;;5034886;28;20064;-73
2021/01/27 05:20:31;;;;;;;21.25;15.43;;;2.10;93.00;;;;;;5036032;28;20112;-76
2021/01/27 05:22:57;;;;;;;21.02;15.52;;;2.10;93.00;;;;;;5037179;28;20021;-72
2021/01/27 05:25:45;;;;;;;22.85;16.02;;;2.20;93.10;;;;;;5044400;28;20041;-73
2021/01/27 05:28:22;;;;;;;21.75;15.95;;;2.10;93.10;;;;;;5039048;28;20033;-72
2021/01/27 05:30:54;;;;;;;23.50;16.38;;;2.10;93.10;;;;;;5039673;28;20714;-72
2021/01/27 05:33:20;;;;;;;23.13;15.43;;;2.10;93.20;;;;;;5036119;28;20036;-72
2021/01/27 05:35:46;;;;;;;21.40;16.50;;;2.10;93.20;;;;;;5035685;28;20051;-72
2021/01/27 05:38:38;;;;;;;23.10;15.95;;;2.10;93.30;;;;;;5053475;28;20087;-73
2021/01/27 05:41:27;;;;;;;22.23;16.73;;;2.20;93.40;;;;;;5034360;28;20182;-72
2021/01/27 05:44:13;;;;;;;23.90;17.00;;;2.10;93.40;;;;;;5036892;28;20030;-75
2021/01/27 05:46:40;;;;;;;22.85;16.23;;;2.20;93.50;;;;;;5037979;28;20499;-74
2021/01/27 05:49:29;;;;;;;25.92;18.15;;;2.20;93.50;;;;;;5035312;28;20056;-74
2021/01/27 05:52:11;;;;;;;25.73;17.88;;;2.20;93.60;;;;;;5036406;28;20098;-76
2021/01/27 05:54:37;;;;;;;24.00;17.35;;;2.20;93.60;;;;;;5039769;28;20041;-72
2021/01/27 05:57:09;;;;;;;26.98;18.02;;;2.20;93.60;;;;;;5047763;28;20049;-75
2021/01/27 05:59:34;;;;;;;24.15;18.30;;;2.20;93.60;;;;;;5038960;28;20559;-72
2021/01/27 06:02:05;;;;;;;24.98;18.30;;;2.30;93.60;;;;;;5036970;28;20059;-74
2021/01/27 06:04:33;;;;;;;25.63;18.85;;;2.30;93.60;;;;;;5048259;28;20041;-72
2021/01/27 06:07:00;;;;;;;25.02;19.17;;;2.30;93.60;;;;;;5034353;28;20091;-72
2021/01/27 06:09:29;;;;;;;24.45;19.30;;;2.30;93.60;;;;;;5035582;28;20123;-74
2021/01/27 06:12:33;;;;;;;26.83;19.05;;;2.30;93.70;;;;;;5034712;28;20048;-75
2021/01/27 06:15:05;;;;;;;27.67;19.23;;;2.40;93.70;;;;;;5034239;28;20120;-74
2021/01/27 06:17:47;;;;;;;29.67;19.92;;;2.40;93.60;;;;;;5032759;28;20098;-74
2021/01/27 06:20:16;;;;;;;27.33;19.95;;;2.40;93.70;;;;;;5033976;28;20074;-72
2021/01/27 06:23:06;;;;;;;25.85;19.25;;;2.40;93.70;;;;;;5029762;28;20088;-72
2021/01/27 06:26:15;;;;;;;27.63;19.42;;;2.40;93.70;;;;;;5029825;28;20040;-75
2021/01/27 06:29:07;;;;;;;27.50;20.05;;;2.40;93.80;;;;;;5034252;28;20040;-74
2021/01/27 06:31:50;;;;;;;26.40;19.40;;;2.50;93.80;;;;;;5034284;28;20041;-73
2021/01/27 06:34:24;;;;;;;27.98;19.35;;;2.50;93.80;;;;;;5035578;28;20032;-72
2021/01/27 06:37:15;;;;;;;29.58;20.83;;;2.50;93.80;;;;;;5035039;28;20049;-72
2021/01/27 06:39:56;;;;;;;27.73;20.40;;;2.60;93.80;;;;;;5030041;28;20120;-73
2021/01/27 06:42:37;;;;;;;25.55;19.95;;;2.50;93.70;;;;;;5050737;28;20032;-72
2021/01/27 06:45:26;;;;;;;26.75;20.02;;;2.60;93.70;;;;;;5051243;28;20377;-73
2021/01/27 06:48:10;;;;;;;27.00;20.33;;;2.60;93.70;;;;;;5034268;28;21209;-72
2021/01/27 06:50:46;;;;;;;31.40;22.48;;;2.60;93.70;;;;;;5034245;28;20044;-72
2021/01/27 06:53:53;;;;;;;29.80;22.00;;;2.60;93.70;;;;;;5036440;28;20040;-72
2021/01/27 06:56:34;;;;;;;34.17;21.35;;;2.60;93.80;;;;;;5032488;28;20029;-72
2021/01/27 06:59:12;;;;;;;29.02;22.25;;;2.60;93.80;;;;;;5034341;28;20515;-73
2021/01/27 07:01:44;;;;;;;29.58;21.55;;;2.60;93.80;;;;;;5034900;28;20053;-73
2021/01/27 07:04:41;;;;;;;31.55;22.65;;;2.60;93.80;;;;;;5034199;28;20140;-74
2021/01/27 07:07:23;;;;;;;29.77;21.17;;;2.70;93.90;;;;;;5034391;28;20040;-74
2021/01/27 07:09:55;;;;;;;29.95;22.17;;;2.70;94.00;;;;;;5038410;28;20469;-73
2021/01/27 07:12:26;;;;;;;30.02;21.88;;;2.70;94.00;;;;;;5038302;28;20554;-75
2021/01/27 07:15:22;;;;;;;30.75;23.23;;;2.70;94.00;;;;;;5038649;28;20034;-72
2021/01/27 07:18:06;;;;;;;;;;;2.80;94.00;;;;;;5036230;28;20393;-76
2021/01/27 07:20:40;;;;;;;29.30;20.02;;;2.80;94.00;;;;;;5047447;28;21591;-75
2021/01/27 07:23:21;;;;;;;29.90;20.50;;;2.80;94.00;;;;;;5036124;28;20068;-72
2021/01/27 07:25:53;;;;;;;29.45;21.45;;;2.80;94.10;;;;;;5034336;28;20044;-74
2021/01/27 07:28:45;;;;;;;28.10;21.00;;;2.80;94.10;;;;;;5033354;28;20037;-77
2021/01/27 07:31:22;;;;;;;31.15;21.80;;;2.80;94.10;;;;;;5036975;28;20079;-73
2021/01/27 07:34:02;;;;;;;26.42;20.58;;;2.80;94.10;;;;;;5051812;28;20095;-76
2021/01/27 07:36:50;;;;;;;28.52;21.40;;;2.90;94.10;;;;;;5035324;28;20477;-77
2021/01/27 07:39:50;;;;;;;29.08;21.25;;;2.80;94.10;;;;;;5035341;28;20029;-76
2021/01/27 07:42:35;;;;;;;32.00;21.75;;;2.90;94.10;;;;;;5034633;28;20480;-76
2021/01/27 07:45:08;;;;;;;33.67;23.20;;;2.90;94.10;;;;;;5037017;28;20037;-76
2021/01/27 07:47:51;;;;;;;31.63;22.35;;;2.90;94.20;;;;;;5033537;28;20306;-73
2021/01/27 07:50:20;;;;;;;35.08;24.05;;;3.00;94.20;;;;;;5034422;28;20438;-75
2021/01/27 07:53:01;;;;;;;34.13;22.25;;;2.90;94.20;;;;;;5034520;28;20557;-76
2021/01/27 07:56:03;;;;;;;30.05;21.33;;;3.00;94.20;;;;;;5034612;28;20041;-78
2021/01/27 07:58:28;;;;;;;31.40;21.77;;;3.10;94.20;;;;;;5026723;28;20044;-76
2021/01/27 08:01:23;;;;;;;30.60;21.35;;;3.10;94.20;;;;;;5035985;28;20076;-78
2021/01/27 08:04:26;;;;;;;30.02;22.10;;;3.10;94.20;;;;;;5028920;28;20041;-73
2021/01/27 08:06:55;;;;;;;30.70;23.45;;;3.10;94.20;;;;;;5035829;28;20559;-74
2021/01/27 08:09:42;;;;;;;29.33;21.42;;;3.10;94.10;;;;;;5035573;28;20059;-74
2021/01/27 08:12:25;;;;;;;33.22;22.50;;;3.10;94.10;;;;;;5037135;28;20487;-73
2021/01/27 08:15:08;;;;;;;31.52;23.63;;;3.10;94.10;;;;;;5033884;28;20037;-75
2021/01/27 08:17:59;;;;;;;32.13;23.33;;;3.10;94.10;;;;;;5036864;28;20138;-73
2021/01/27 08:20:25;;;;;;;29.75;22.25;;;3.10;94.10;;;;;;5025285;28;20083;-71
2021/01/27 08:22:57;;;;;;;34.45;23.60;;;3.10;94.10;;;;;;5044577;28;20124;-68
2021/01/27 08:25:48;;;;;;;36.25;25.15;;;3.20;94.20;;;;;;5034228;28;20025;-68
2021/01/27 08:28:24;;;;;;;37.63;26.50;;;3.20;94.20;;;;;;5037650;28;20079;-68
2021/01/27 08:31:16;;;;;;;33.97;25.13;;;3.20;94.10;;;;;;5034653;28;20136;-68
2021/01/27 08:33:47;;;;;;;33.00;24.58;;;3.20;94.10;;;;;;5037212;28;20041;-70
2021/01/27 08:36:33;;;;;;;37.50;25.27;;;3.20;94.20;;;;;;5040284;28;20084;-68
2021/01/27 08:38:58;;;;;;;39.28;25.77;;;3.20;94.10;;;;;;5041004;28;20640;-70
2021/01/27 08:41:58;;;;;;;37.60;25.92;;;3.30;94.20;;;;;;5035112;28;20041;-70
2021/01/27 08:44:33;;;;;;;37.58;25.30;;;3.30;94.10;;;;;;5038880;28;20060;-69
2021/01/27 08:47:08;;;;;;;38.45;26.77;;;3.30;94.20;;;;;;5041963;28;20128;-68
2021/01/27 08:49:36;;;;;;;;;;;3.40;94.20;;;;;;5040464;28;20068;-70
2021/01/27 08:52:11;;;;;;;35.90;25.80;;;3.40;94.30;;;;;;5037889;28;19930;-69
2021/01/27 08:54:37;;;;;;;33.83;25.27;;;3.50;94.30;;;;;;5037241;28;20087;-69
2021/01/27 08:57:35;;;;;;;37.78;25.67;;;3.50;94.30;;;;;;5037954;28;20136;-68
2021/01/27 09:00:18;;;;;;;39.88;26.95;;;3.60;94.20;;;;;;5040874;28;20413;-70
2021/01/27 09:02:59;;;;;;;40.13;26.83;;;3.60;94.10;;;;;;5038545;28;20457;-67
2021/01/27 09:05:25;;;;;;;50.20;26.13;;;3.60;94.10;;;;;;5040138;28;20123;-69
2021/01/27 09:07:52;;;;;;;36.88;24.52;;;3.60;94.10;;;;;;5039563;28;20045;-68
2021/01/27 09:10:20;;;;;;;35.53;24.77;;;3.60;94.10;;;;;;5038032;28;20491;-68
2021/01/27 09:12:48;;;;;;;34.97;25.60;;;3.60;94.10;;;;;;5036139;28;20468;-69
2021/01/27 09:15:43;;;;;;;36.47;25.40;;;3.60;94.00;;;;;;5038071;28;20124;-69
2021/01/27 09:18:12;;;;;;;41.17;26.67;;;3.70;94.10;;;;;;5041093;28;20144;-68
2021/01/27 09:20:39;;;;;;;38.28;25.92;;;3.70;94.00;;;;;;5035992;28;20044;-68
2021/01/27 09:23:05;;;;;;;40.40;27.17;;;3.80;94.10;;;;;;5038670;28;20037;-68
2021/01/27 09:25:41;;;;;;;40.33;27.15;;;3.80;94.10;;;;;;5036909;28;21194;-68
2021/01/27 09:28:09;;;;;;;41.45;27.35;;;3.90;94.10;;;;;;5035202;28;20033;-70
2021/01/27 09:30:36;;;;;;;42.80;27.90;;;3.90;94.20;;;;;;5038590;28;20025;-70
2021/01/27 09:33:31;;;;;;;42.55;27.65;;;3.90;94.20;;;;;;5039426;28;20053;-68
2021/01/27 09:36:12;;;;;;;45.20;26.50;;;3.90;94.20;;;;;;5036862;28;20106;-68
2021/01/27 09:38:38;;;;;;;44.42;29.52;;;4.00;94.30;;;;;;5028754;28;20044;-69
2021/01/27 09:41:18;;;;;;;46.42;28.17;;;4.10;94.30;;;;;;5026372;28;20032;-70
2021/01/27 09:43:47;;;;;;;45.53;27.70;;;4.10;94.20;;;;;;5034237;28;20072;-68
2021/01/27 09:46:37;;;;;;;45.20;26.88;;;4.10;94.20;;;;;;5028663;28;20051;-68
2021/01/27 09:49:12;;;;;;;45.75;27.80;;;4.10;94.20;;;;;;5026643;28;20404;-69
2021/01/27 09:51:40;;;;;;;47.83;28.08;;;4.10;94.20;;;;;;5030311;28;20037;-67
2021/01/27 09:54:06;;;;;;;45.38;28.33;;;4.20;94.20;;;;;;5032456;28;20049;-71
2021/01/27 09:56:33;;;;;;;48.58;28.98;;;4.20;94.20;;;;;;5034568;28;20049;-67
2021/01/27 09:59:00;;;;;;;49.90;28.15;;;4.20;94.20;;;;;;5032475;28;20104;-69
2021/01/27 10:01:32;;;;;;;49.00;28.40;;;4.30;94.20;;;;;;5032165;28;20139;-69
2021/01/27 10:04:16;;;;;;;45.45;29.25;;;4.30;94.20;;;;;;5032363;28;20087;-68
2021/01/27 10:06:49;;;;;;;42.33;27.17;;;4.30;94.10;;;;;;5030888;28;20083;-70
2021/01/27 10:09:30;;;;;;;47.22;28.73;;;4.40;94.20;;;;;;5031232;28;20033;-67
2021/01/27 10:12:06;;;;;;;48.25;28.13;;;4.50;94.20;;;;;;5030913;28;20039;-70
2021/01/27 10:14:35;;;;;;;43.17;27.70;;;4.40;94.10;;;;;;5030934;28;20036;-69
2021/01/27 10:17:07;;;;;;;49.40;29.42;;;4.50;94.00;;;;;;5028199;28;20041;-67
2021/01/27 10:19:35;;;;;;;46.63;28.60;;;4.50;94.00;;;;;;5029151;28;20555;-69
2021/01/27 10:22:06;;;;;;;48.88;29.58;;;4.50;94.00;;;;;;5029316;28;20060;-70
2021/01/27 10:24:48;;;;;;;53.00;29.38;;;4.60;94.10;;;;;;5034768;28;20087;-68
2021/01/27 10:27:20;;;;;;;50.65;30.70;;;4.60;94.10;;;;;;5032116;28;20056;-70
2021/01/27 10:29:46;;;;;;;55.95;29.67;;;4.60;94.10;;;;;;5036018;28;20043;-68
2021/01/27 10:32:24;;;;;;;45.53;29.63;;;4.60;94.00;;;;;;5030629;28;20037;-68
2021/01/27 10:34:51;;;;;;;58.30;31.30;;;4.70;94.10;;;;;;5028264;28;20029;-69
2021/01/27 10:37:34;;;;;;;55.55;32.83;;;4.70;94.10;;;;;;5032964;28;20090;-69
2021/01/27 10:40:13;;;;;;;53.90;33.15;;;4.70;94.00;;;;;;5032300;28;20152;-69
2021/01/27 10:42:48;;;;;;;58.47;33.20;;;4.80;94.00;;;;;;5035897;28;20056;-67
2021/01/27 10:45:27;;;;;;;55.22;31.92;;;4.80;94.00;;;;;;5029804;28;20036;-71
2021/01/27 10:48:11;;;;;;;56.80;32.08;;;4.80;94.10;;;;;;5033169;28;20075;-68
2021/01/27 10:50:47;;;;;;;49.90;31.45;;;4.90;94.10;;;;;;5030386;28;20526;-70
2021/01/27 10:53:14;;;;;;;56.38;31.88;;;4.90;94.10;;;;;;5033838;28;20100;-69
2021/01/27 10:55:44;;;;;;;56.08;33.45;;;4.90;94.10;;;;;;5027305;28;20041;-70
2021/01/27 10:58:13;;;;;;;58.30;33.30;;;4.90;94.10;;;;;;5030583;28;20104;-69
2021/01/27 11:00:39;;;;;;;57.95;32.13;;;5.00;94.10;;;;;;5027100;28;20176;-68
2021/01/27 11:03:06;;;;;;;53.75;32.03;;;5.10;94.10;;;;;;5028262;28;20117;-70
2021/01/27 11:05:32;;;;;;;58.92;34.97;;;5.10;94.00;;;;;;5035345;28;20316;-71
2021/01/27 11:07:59;;;;;;;57.55;37.78;;;5.10;94.00;;;;;;5030179;28;20617;-70
2021/01/27 11:10:25;;;;;;;68.45;37.67;;;5.10;94.00;;;;;;5030092;28;20037;-69
2021/01/27 11:12:50;;;;;;;57.42;35.67;;;5.20;94.00;;;;;;5030841;28;20067;-70
2021/01/27 11:15:17;;;;;;;54.30;34.20;;;5.20;94.00;;;;;;5030372;28;20389;-68
2021/01/27 11:17:43;;;;;;;55.03;34.53;;;5.30;93.90;;;;;;5032229;28;20044;-70
2021/01/27 11:20:09;;;;;;;61.85;39.67;;;5.30;93.90;;;;;;5029350;28;20717;-68
2021/01/27 11:22:35;;;;;;;59.50;40.25;;;5.40;93.80;;;;;;5032095;28;20124;-68
2021/01/27 11:25:01;;;;;;;56.92;40.40;;;5.40;93.80;;;;;;5028214;28;20037;-69
2021/01/27 11:27:26;;;;;;;65.10;37.75;;;5.40;93.80;;;;;;5029402;28;20053;-68
2021/01/27 11:29:52;;;;;;;54.67;34.50;;;5.40;93.90;;;;;;5031571;28;20117;-69
2021/01/27 11:32:18;;;;;;;56.63;35.17;;;5.50;93.90;;;;;;5029415;28;20041;-68
2021/01/27 11:34:43;;;;;;;52.42;34.35;;;5.60;93.80;;;;;;5031985;28;20238;-68
2021/01/27 11:37:10;;;;;;;55.63;34.22;;;5.50;93.80;;;;;;5030368;28;20079;-68
2021/01/27 11:39:35;;;;;;;56.30;33.92;;;5.60;93.80;;;;;;5027169;28;20037;-69
2021/01/27 11:42:02;;;;;;;59.45;35.55;;;5.70;93.80;;;;;;5026755;28;20036;-70
2021/01/27 11:44:28;;;;;;;58.28;33.63;;;5.70;93.70;;;;;;5044145;28;20329;-69
2021/01/27 11:46:53;;;;;;;54.53;35.42;;;5.70;93.70;;;;;;5025299;28;20323;-69
2021/01/27 11:49:19;;;;;;;60.53;35.17;;;5.80;93.60;;;;;;5029413;28;20037;-70
2021/01/27 11:51:45;;;;;;;58.80;34.83;;;5.80;93.60;;;;;;5030628;28;20302;-70
2021/01/27 11:54:10;;;;;;;54.60;35.05;;;5.80;93.60;;;;;;5027918;28;20041;-68
2021/01/27 11:56:37;;;;;;;57.20;33.90;;;5.80;93.60;;;;;;5027885;28;20137;-69
2021/01/27 11:59:03;;;;;;;57.63;33.08;;;5.90;93.70;;;;;;5025354;28;20041;-67
2021/01/27 12:01:29;;;;;;;59.38;34.80;;;6.00;93.70;;;;;;5027909;28;20081;-69
2021/01/27 12:03:55;;;;;;;58.55;33.47;;;6.00;93.70;;;;;;5028138;28;20203;-69
2021/01/27 12:06:21;;;;;;;58.50;34.80;;;6.10;93.60;;;;;;5032448;28;20044;-68
2021/01/27 12:08:47;;;;;;;56.28;33.17;;;6.10;93.70;;;;;;5035469;28;20531;-70
2021/01/27 12:11:13;;;;;;;57.45;34.25;;;6.20;93.60;;;;;;5032992;28;20123;-68
2021/01/27 12:13:39;;;;;;;56.33;35.67;;;6.30;93.60;;;;;;5030667;28;20076;-70
2021/01/27 12:16:05;;;;;;;58.42;34.83;;;6.40;93.50;;;;;;5034213;28;20044;-69
2021/01/27 12:18:31;;;;;;;55.78;34.97;;;6.40;93.40;;;;;;5033008;28;20122;-69
2021/01/27 12:20:56;;;;;;;59.45;35.25;;;6.50;93.30;;;;;;5032386;28;20090;-71
2021/01/27 12:23:22;;;;;;;58.60;35.53;;;6.60;93.20;;;;;;5032340;28;20037;-72
2021/01/27 12:25:48;;;;;;;52.72;34.17;;;6.60;93.10;;;;;;5034803;28;20048;-68
2021/01/27 12:28:14;;;;;;;55.70;33.00;;;6.60;93.00;;;;;;5034493;28;20459;-70
2021/01/27 12:30:40;;;;;;;56.85;34.10;;;6.60;92.50;;;;;;5035624;28;20473;-69
2021/01/27 12:33:07;;;;;;;56.65;34.22;;;6.60;92.40;;;;;;5035219;28;20061;-69
2021/01/27 12:35:33;;;;;;;57.00;34.03;;;6.70;92.60;;;;;;5033107;28;20060;-68
2021/01/27 12:37:59;;;;;;;55.50;33.72;;;6.70;92.50;;;;;;5035341;28;20063;-68
2021/01/27 12:40:25;;;;;;;53.25;32.08;;;6.80;92.30;;;;;;5033430;28;20053;-71
2021/01/27 12:42:51;;;;;;;61.58;35.15;;;6.80;92.20;;;;;;5015056;28;20449;-72
2021/01/27 12:45:21;;;;;;;58.03;34.42;;;6.80;92.10;;;;;;5021639;28;20036;-70
2021/01/27 12:47:47;;;;;;;55.78;34.53;;;6.70;92.20;;;;;;5026154;28;20432;-73
2021/01/27 12:50:14;;;;;;;62.95;37.63;;;6.80;92.20;;;;;;5030679;28;20179;-70
2021/01/27 12:52:41;;;;;;;58.75;35.88;;;6.70;92.20;;;;;;5020723;28;20447;-72
2021/01/27 12:55:10;;;;;;;60.45;38.05;;;6.70;92.20;;;;;;5037788;28;20033;-71
2021/01/27 12:57:40;;;;;;;59.17;35.03;;;6.70;92.30;;;;;;5022916;28;20211;-70
2021/01/27 13:00:08;;;;;;;61.55;35.78;;;6.70;92.30;;;;;;5029431;28;20048;-72
2021/01/27 13:02:34;;;;;;;62.13;34.50;;;6.70;92.40;;;;;;5026463;28;20475;-70
2021/01/27 13:05:00;;;;;;;58.50;35.08;;;6.80;92.50;;;;;;5027212;28;20030;-73
2021/01/27 13:07:25;;;;;;;56.97;34.22;;;6.90;92.40;;;;;;5029636;28;20071;-70
2021/01/27 13:09:51;;;;;;;63.17;35.70;;;7.00;92.40;;;;;;5023971;28;20044;-72
2021/01/27 13:12:17;;;;;;;57.10;34.80;;;7.00;92.50;;;;;;5022497;28;20068;-72
2021/01/27 13:14:43;;;;;;;59.58;35.08;;;7.10;92.50;;;;;;5027192;28;20048;-70